Time;durP1;ratioP1;P1;durP2;ratioP2;P2;SDS_P1;SDS_P2;PMS_P1;PMS_P2;Temp;Humidity;BMP_temperature;BMP_pressure;BME280_temperature;BME280_humidity;BME280_pressure;Samples;Min_cycle;Max_cycle;Signal;HPM_P1;HPM_P2
2022/08/14 00:00:52;;;;;;;;;6.50;5.00;;;;;29.29;23.95;100230.88;2112105;27;47709;-63
2022/08/14 00:01:52;;;;;;;;;8.60;7.40;;;;;29.33;24.31;100247.78;2103603;28;47635;-64
2022/08/14 00:02:53;;;;;;;;;6.00;6.00;;;;;29.33;24.44;100240.44;2104031;28;47394;-63
2022/08/14 00:03:53;;;;;;;;;5.75;5.75;;;;;29.33;24.26;100236.84;2104218;28;47938;-63
2022/08/14 00:04:54;;;;;;;;;6.25;6.25;;;;;29.31;24.35;100232.41;2109389;27;47442;-64
2022/08/14 00:05:57;;;;;;;;;6.00;6.00;;;;;29.30;24.15;100235.31;2111693;27;47455;-63
2022/08/14 00:06:57;;;;;;;;;5.80;5.20;;;;;29.27;24.38;100227.44;2104904;27;47797;-63
2022/08/14 00:07:58;;;;;;;;;9.25;6.75;;;;;29.26;24.43;100214.81;2104502;27;47211;-63
2022/08/14 00:08:58;;;;;;;;;6.00;6.00;;;;;29.26;24.32;100217.53;2104556;27;47881;-64
2022/08/14 00:09:58;;;;;;;;;7.25;6.00;;;;;29.25;24.61;100222.16;2104635;27;46996;-64
2022/08/14 00:10:59;;;;;;;;;7.00;6.50;;;;;29.24;24.50;100225.06;2094758;28;47333;-63
2022/08/14 00:11:59;;;;;;;;;7.50;6.25;;;;;29.21;24.29;100217.16;2095015;28;47628;-64
2022/08/14 00:13:00;;;;;;;;;8.50;7.00;;;;;29.19;24.47;100216.47;2104765;27;46584;-63
2022/08/14 00:14:01;;;;;;;;;5.50;5.50;;;;;29.19;24.63;100205.53;2104168;27;47110;-63
2022/08/14 00:15:05;;;;;;;;;8.50;8.50;;;;;29.18;24.46;100210.16;2104608;27;48814;-63
2022/08/14 00:16:06;;;;;;;;;7.20;5.60;;;;;29.17;24.42;100207.59;2104444;27;47618;-63
2022/08/14 00:17:06;;;;;;;;;7.25;7.25;;;;;29.16;24.38;100205.88;2104571;27;47667;-64
2022/08/14 00:18:10;;;;;;;;;6.00;6.00;;;;;29.16;24.72;100208.63;2104388;27;47229;-63
2022/08/14 00:19:11;;;;;;;;;7.00;7.00;;;;;29.15;24.56;100209.63;2104313;27;47678;-63
2022/08/14 00:20:12;;;;;;;;;7.00;7.00;;;;;29.14;24.76;100200.59;2104307;27;47644;-63
2022/08/14 00:21:13;;;;;;;;;15.75;15.00;;;;;29.15;24.79;100201.44;2104470;27;47039;-64
2022/08/14 00:22:17;;;;;;;;;13.50;12.25;;;;;29.14;24.68;100202.47;2104108;27;48347;-64
2022/08/14 00:23:18;;;;;;;;;10.60;9.00;;;;;29.14;24.60;100197.00;2096510;28;47545;-63
2022/08/14 00:24:20;;;;;;;;;6.80;6.80;;;;;29.12;24.44;100194.44;2108175;27;47347;-64
2022/08/14 00:25:21;;;;;;;;;7.00;7.00;;;;;29.10;24.45;100187.44;2104492;27;47126;-63
2022/08/14 00:26:22;;;;;;;;;8.00;8.00;;;;;29.10;24.39;100190.16;2112176;27;47480;-64
2022/08/14 00:27:23;;;;;;;;;7.80;7.80;;;;;29.08;24.45;100195.75;2104206;27;47177;-64
2022/08/14 00:28:26;;;;;;;;;6.00;6.00;;;;;29.10;24.60;100192.91;2104372;27;47551;-64
2022/08/14 00:29:29;;;;;;;;;6.20;6.20;;;;;29.10;24.32;100180.09;2104190;27;47568;-64
2022/08/14 00:30:29;;;;;;;;;7.00;7.00;;;;;29.09;24.47;100189.28;2104225;27;46513;-64
2022/08/14 00:31:30;;;;;;;;;8.00;8.00;;;;;29.08;24.52;100184.84;2112748;27;47407;-64
2022/08/14 00:32:30;;;;;;;;;7.75;7.75;;;;;29.07;24.46;100185.00;2112388;27;47948;-64
2022/08/14 00:33:31;;;;;;;;;8.50;8.50;;;;;29.07;24.54;100185.00;2104232;27;47787;-63
2022/08/14 00:34:31;;;;;;;;;5.40;5.40;;;;;29.04;24.42;100172.53;2104211;27;47570;-65
2022/08/14 00:35:33;;;;;;;;;14.00;12.50;;;;;29.02;24.73;100177.31;2104132;27;47726;-63
2022/08/14 00:36:33;;;;;;;;;8.20;8.20;;;;;28.99;24.68;100178.50;2104682;27;47900;-64
2022/08/14 00:37:36;;;;;;;;;8.00;8.00;;;;;28.98;24.69;100184.16;2103867;27;47501;-63
2022/08/14 00:38:36;;;;;;;;;7.60;6.60;;;;;28.97;25.06;100182.44;2104487;27;46415;-63
2022/08/14 00:39:37;;;;;;;;;6.75;6.75;;;;;28.94;24.77;100182.75;2104152;27;47599;-63
2022/08/14 00:40:38;;;;;;;;;7.00;7.00;;;;;28.93;24.57;100167.38;2104423;27;47533;-64
2022/08/14 00:41:38;;;;;;;;;4.80;4.00;;;;;28.92;24.88;100182.91;2104681;27;47959;-64
2022/08/14 00:42:40;;;;;;;;;5.25;5.25;;;;;28.90;24.70;100174.03;2104647;27;47556;-63
2022/08/14 00:43:40;;;;;;;;;7.40;7.40;;;;;28.90;24.88;100159.50;2104090;27;47613;-63
2022/08/14 00:44:40;;;;;;;;;7.00;7.00;;;;;28.88;24.58;100170.59;2104095;27;48007;-63
2022/08/14 00:45:41;;;;;;;;;7.25;7.25;;;;;28.86;24.73;100164.44;2104162;28;45185;-62
2022/08/14 00:46:43;;;;;;;;;9.20;6.60;;;;;28.87;24.84;100162.56;2104143;27;47431;-63
2022/08/14 00:47:46;;;;;;;;;6.60;5.40;;;;;28.85;24.61;100165.44;2104249;27;48618;-63
2022/08/14 00:48:47;;;;;;;;;7.20;7.20;;;;;28.84;24.71;100166.47;2103298;28;47264;-63
2022/08/14 00:49:47;;;;;;;;;7.25;7.25;;;;;28.84;25.09;100177.41;2103794;28;48060;-64
2022/08/14 00:50:48;;;;;;;;;8.75;7.75;;;;;28.83;25.19;100167.47;2104203;27;46695;-63
2022/08/14 00:51:48;;;;;;;;;6.50;5.00;;;;;28.84;24.87;100171.06;2104198;27;47489;-64
2022/08/14 00:52:51;;;;;;;;;7.25;7.25;;;;;28.83;24.83;100174.81;2104553;27;47759;-64
2022/08/14 00:53:52;;;;;;;;;5.20;5.20;;;;;28.83;24.99;100161.16;2103521;27;48127;-63
2022/08/14 00:54:53;;;;;;;;;5.40;5.40;;;;;28.81;24.92;100166.78;2104203;27;47998;-63
2022/08/14 00:55:55;;;;;;;;;8.80;8.00;;;;;28.81;25.17;100166.78;2104179;27;46440;-64
2022/08/14 00:56:55;;;;;;;;;7.00;7.00;;;;;28.84;24.91;100162.84;2104177;27;47607;-64
2022/08/14 00:59:17;;;;;;;;;7.80;7.80;;;;;28.80;25.23;100161.47;2104236;28;48244;-63
2022/08/14 01:00:18;;;;;;;;;5.25;5.25;;;;;28.80;24.97;100161.47;2103824;28;45841;-64
2022/08/14 01:01:18;;;;;;;;;11.75;11.75;;;;;28.79;24.89;100155.16;2095109;28;47615;-63
2022/08/14 01:02:23;;;;;;;;;12.00;12.00;;;;;28.79;25.26;100157.03;2103299;28;47842;-63
2022/08/14 01:03:28;;;;;;;;;12.40;12.40;;;;;28.79;25.30;100154.31;2103882;27;47231;-65
2022/08/14 01:04:30;;;;;;;;;12.00;11.00;;;;;28.80;25.30;100153.28;2103984;27;47159;-64
2022/08/14 01:05:32;;;;;;;;;9.20;9.20;;;;;28.78;25.06;100158.06;2104111;27;47554;-63
2022/08/14 01:06:33;;;;;;;;;10.80;10.80;;;;;28.76;25.51;100160.13;2103185;28;47676;-63
2022/08/14 01:07:35;;;;;;;;;11.60;11.40;;;;;28.73;25.29;100151.22;2103855;28;47425;-66
2022/08/14 01:08:37;;;;;;;;;10.60;10.40;;;;;28.73;25.31;100153.09;2104227;27;47777;-65
2022/08/14 01:09:38;;;;;;;;;10.40;10.40;;;;;28.72;25.25;100144.06;2110712;27;47455;-64
2022/08/14 01:10:52;;;;;;;;;8.00;8.00;;;;;28.72;25.38;100149.53;2111811;27;45478;-63
2022/08/14 01:11:52;;;;;;;;;7.00;7.00;;;;;28.69;25.60;100141.63;2103474;28;47809;-65
2022/08/14 01:12:53;;;;;;;;;6.25;6.00;;;;;28.71;24.82;100146.94;2103215;28;47353;-63
2022/08/14 01:13:59;;;;;;;;;7.40;7.40;;;;;28.71;25.66;100141.47;2103540;28;47222;-64
2022/08/14 01:15:02;;;;;;;;;6.00;6.00;;;;;28.70;25.52;100143.34;2110217;27;45844;-63
2022/08/14 01:16:07;;;;;;;;;8.20;6.60;;;;;28.70;25.20;100131.56;2101214;28;47868;-63
2022/08/14 01:17:07;;;;;;;;;6.00;6.00;;;;;28.70;25.52;100129.69;2094570;28;47616;-64
2022/08/14 01:22:06;;;;;;;;;4.80;4.80;;;;;28.70;25.02;100124.22;2103566;28;47840;-64
2022/08/14 01:23:12;;;;;;;;;6.00;6.00;;;;;28.69;25.46;100122.53;2103548;28;47866;-64
2022/08/14 01:24:14;;;;;;;;;5.00;4.20;;;;;28.70;25.29;100120.66;2103796;27;48309;-63
2022/08/14 01:25:14;;;;;;;;;6.00;6.00;;;;;28.69;25.29;100125.25;2103785;27;47523;-64
2022/08/14 01:26:22;;;;;;;;;5.25;5.25;;;;;28.69;25.15;100117.06;2104181;27;47873;-63
2022/08/14 01:27:23;;;;;;;;;4.80;4.80;;;;;28.67;25.54;100116.38;2104106;27;48235;-64
2022/08/14 01:28:30;;;;;;;;;6.00;6.00;;;;;28.67;25.69;100110.91;2104149;27;47139;-64
2022/08/14 01:29:36;;;;;;;;;5.00;5.00;;;;;28.66;25.55;100109.22;2104498;27;47926;-63
2022/08/14 01:30:37;;;;;;;;;6.40;6.40;;;;;28.66;25.29;100119.28;2105843;27;47541;-63
2022/08/14 01:32:49;;;;;;;;;6.20;6.20;;;;;28.63;25.71;100109.53;2105333;27;48012;-62
2022/08/14 01:33:51;;;;;;;;;5.20;5.20;;;;;28.61;25.83;100111.59;2105918;27;48319;-63
2022/08/14 01:34:54;;;;;;;;;5.80;5.80;;;;;28.60;25.46;100117.22;2105431;27;47493;-63
2022/08/14 01:35:57;;;;;;;;;5.80;5.80;;;;;28.61;25.48;100113.47;2105489;27;47577;-63
2022/08/14 01:36:59;;;;;;;;;6.20;5.40;;;;;28.59;25.38;100116.34;2105547;27;47680;-64
2022/08/14 01:37:59;;;;;;;;;6.00;6.00;;;;;28.58;25.85;100120.06;2104870;28;47614;-63
2022/08/14 01:38:59;;;;;;;;;8.75;8.75;;;;;28.57;25.21;100114.78;2105200;28;45935;-64
2022/08/14 01:40:00;;;;;;;;;5.00;5.00;;;;;28.55;25.43;100114.97;2105263;27;46420;-64
2022/08/14 01:41:11;;;;;;;;;5.25;5.25;;;;;28.54;25.80;100109.66;2105464;27;47433;-63
2022/08/14 01:42:12;;;;;;;;;8.00;7.20;;;;;28.54;25.53;100115.97;2105519;27;47571;-63
2022/08/14 01:43:16;;;;;;;;;5.00;5.00;;;;;28.52;25.41;100115.28;2105447;27;47568;-63
2022/08/14 01:44:16;;;;;;;;;7.00;6.00;;;;;28.52;25.70;100115.28;2103744;28;47859;-63
2022/08/14 01:45:17;;;;;;;;;9.75;8.75;;;;;28.52;25.48;100117.16;2105433;27;47945;-63
2022/08/14 01:46:21;;;;;;;;;7.50;6.00;;;;;28.50;25.47;100122.78;2105641;27;47234;-64
2022/08/14 01:47:21;;;;;;;;;6.80;6.80;;;;;28.50;25.91;100125.53;2105329;27;47634;-63
2022/08/14 01:48:22;;;;;;;;;8.00;8.00;;;;;28.49;25.90;100123.81;2105429;27;47618;-65
2022/08/14 01:49:23;;;;;;;;;4.50;4.50;;;;;28.49;25.07;100123.81;2105651;27;47891;-63
2022/08/14 01:50:23;;;;;;;;;5.00;5.00;;;;;28.48;25.78;100123.97;2104851;27;47481;-64
2022/08/14 01:51:27;;;;;;;;;7.75;7.00;;;;;28.47;25.81;100125.84;2105294;27;47955;-63
2022/08/14 01:52:36;;;;;;;;;4.20;4.20;;;;;28.47;25.93;100119.53;2105315;27;48102;-63
2022/08/14 01:53:39;;;;;;;;;5.80;5.80;;;;;28.47;25.91;100127.72;2104659;28;47349;-62
2022/08/14 01:54:39;;;;;;;;;8.00;8.00;;;;;28.45;25.61;100122.41;2096933;28;47343;-64
2022/08/14 01:55:40;;;;;;;;;5.00;4.25;;;;;28.43;25.77;100119.84;2104705;28;47302;-63
2022/08/14 01:56:43;;;;;;;;;6.00;5.50;;;;;28.43;26.01;100121.72;2105100;27;47526;-64
2022/08/14 01:57:44;;;;;;;;;5.80;5.80;;;;;28.41;25.81;100124.63;2104759;28;47362;-64
2022/08/14 01:58:50;;;;;;;;;7.00;6.00;;;;;28.42;25.68;100125.47;2104773;28;48089;-64
2022/08/14 01:59:55;;;;;;;;;8.20;7.40;;;;;28.41;26.04;100119.16;2101316;28;47547;-63
2022/08/14 02:00:57;;;;;;;;;6.80;6.80;;;;;28.42;26.12;100122.72;2105625;27;47527;-63
2022/08/14 02:02:02;;;;;;;;;7.60;7.60;;;;;28.41;26.10;100116.44;2105036;27;47310;-63
2022/08/14 02:03:04;;;;;;;;;7.40;7.40;;;;;28.40;25.71;100113.88;2113560;27;46971;-62
2022/08/14 02:04:04;;;;;;;;;7.00;6.00;;;;;28.38;26.18;100115.91;2113435;27;47550;-61
2022/08/14 02:05:07;;;;;;;;;7.50;7.50;;;;;28.38;26.10;100110.44;2103891;28;47520;-63
2022/08/14 02:06:10;;;;;;;;;6.80;6.80;;;;;28.35;26.31;100108.06;2087011;28;47793;-63
2022/08/14 02:07:10;;;;;;;;;6.60;6.60;;;;;28.34;25.69;100117.25;2096174;28;47737;-63
2022/08/14 02:08:11;;;;;;;;;8.75;8.25;;;;;28.32;26.21;100111.94;2097509;28;47303;-63
2022/08/14 02:09:11;;;;;;;;;8.50;8.00;;;;;28.33;26.30;100104.59;2095512;28;47447;-63
2022/08/14 02:10:13;;;;;;;;;6.75;6.75;;;;;28.32;26.38;100119.25;2105473;27;48148;-63
2022/08/14 02:11:17;;;;;;;;;5.80;5.80;;;;;28.31;26.32;100109.38;2104894;27;47753;-63
2022/08/14 02:12:18;;;;;;;;;6.20;6.20;;;;;28.31;26.68;100109.38;2105706;27;47899;-64
2022/08/14 02:13:19;;;;;;;;;7.50;7.50;;;;;28.30;26.14;100113.13;2103142;28;47404;-63
2022/08/14 02:14:19;;;;;;;;;8.40;7.60;;;;;28.29;25.84;100105.94;2105083;27;47842;-63
2022/08/14 02:15:20;;;;;;;;;6.00;6.00;;;;;28.28;26.46;100099.63;2105018;27;47542;-63
2022/08/14 02:16:28;;;;;;;;;7.20;6.80;;;;;28.27;25.97;100108.84;2104941;27;47490;-64
2022/08/14 02:17:31;;;;;;;;;5.00;5.00;;;;;28.26;26.10;100104.38;2105061;27;47804;-64
2022/08/14 02:18:32;;;;;;;;;10.00;9.00;;;;;28.25;26.27;100097.22;2105377;27;48455;-63
2022/08/14 02:19:34;;;;;;;;;7.00;7.00;;;;;28.23;26.15;100096.53;2105261;27;47169;-64
2022/08/14 02:20:34;;;;;;;;;6.20;6.20;;;;;28.22;26.07;100100.28;2105193;27;47803;-62
2022/08/14 02:21:37;;;;;;;;;7.75;6.50;;;;;28.22;26.59;100097.53;2105184;27;47582;-63
2022/08/14 02:22:37;;;;;;;;;7.00;7.00;;;;;28.22;26.47;100094.81;2104987;28;47550;-63
2022/08/14 02:23:38;;;;;;;;;6.00;6.00;;;;;28.24;25.88;100094.66;2104931;28;47476;-63
2022/08/14 02:24:39;;;;;;;;;7.75;7.50;;;;;28.22;26.21;100096.69;2105088;27;47855;-63
2022/08/14 02:25:39;;;;;;;;;5.25;5.25;;;;;28.21;26.65;100092.25;2105136;27;47839;-62
2022/08/14 02:26:46;;;;;;;;;8.50;8.50;;;;;28.19;26.08;100088.81;2105215;27;47474;-62
2022/08/14 02:27:48;;;;;;;;;6.40;6.20;;;;;28.17;26.27;100090.84;2105611;27;47994;-64
2022/08/14 02:28:52;;;;;;;;;7.20;7.20;;;;;28.15;26.90;100082.81;2105394;27;47921;-63
2022/08/14 02:29:55;;;;;;;;;8.20;7.80;;;;;28.13;26.79;100091.16;2105257;27;48233;-63
2022/08/14 02:30:56;;;;;;;;;7.60;7.60;;;;;28.09;26.45;100087.06;2105001;27;47621;-63
2022/08/14 02:31:59;;;;;;;;;8.80;8.00;;;;;28.08;27.01;100082.63;2104204;28;47369;-63
2022/08/14 02:33:00;;;;;;;;;7.00;7.00;;;;;28.06;26.46;100078.31;2104755;28;47476;-63
2022/08/14 02:34:09;;;;;;;;;7.00;7.00;;;;;28.05;26.77;100076.63;2104996;27;47525;-62
2022/08/14 02:35:17;;;;;;;;;5.80;5.80;;;;;28.04;26.77;100074.91;2105410;27;47350;-63
2022/08/14 02:36:17;;;;;;;;;7.00;6.60;;;;;28.04;26.66;100075.75;2103904;28;48079;-63
2022/08/14 02:37:18;;;;;;;;;7.25;7.25;;;;;28.03;26.58;100074.06;2105103;27;47772;-63
2022/08/14 02:38:18;;;;;;;;;6.75;6.75;;;;;28.03;26.34;100073.19;2105053;27;47845;-63
2022/08/14 02:39:19;;;;;;;;;7.50;7.00;;;;;28.02;26.66;100069.63;2105399;27;46553;-64
2022/08/14 02:40:20;;;;;;;;;6.50;6.50;;;;;28.03;26.34;100073.19;2103890;27;47348;-63
2022/08/14 02:41:22;;;;;;;;;8.80;7.80;;;;;28.04;27.10;100074.91;2104444;28;47286;-64
2022/08/14 02:42:24;;;;;;;;;6.60;5.40;;;;;28.04;27.12;100073.03;2104980;27;47834;-64
2022/08/14 02:43:31;;;;;;;;;8.20;7.00;;;;;28.05;26.75;100071.16;2105494;27;47946;-64
2022/08/14 02:44:31;;;;;;;;;6.00;6.00;;;;;28.05;26.66;100069.28;2105180;28;46695;-64
2022/08/14 02:45:33;;;;;;;;;7.00;7.00;;;;;28.05;26.41;100069.28;2104260;28;47981;-64
2022/08/14 02:46:33;;;;;;;;;7.20;6.40;;;;;28.06;26.21;100072.88;2096259;28;47623;-63
2022/08/14 02:47:35;;;;;;;;;6.00;6.00;;;;;28.06;26.50;100070.13;2104483;28;48208;-65
2022/08/14 02:48:42;;;;;;;;;5.60;5.60;;;;;28.06;26.58;100073.72;2105177;27;47640;-63
2022/08/14 02:49:44;;;;;;;;;5.60;5.00;;;;;28.04;26.35;100072.19;2105132;27;48091;-65
2022/08/14 02:50:45;;;;;;;;;5.60;5.60;;;;;28.03;26.34;100067.75;2103790;28;47470;-64
2022/08/14 02:51:48;;;;;;;;;6.50;6.50;;;;;28.03;26.81;100073.19;2095357;28;47937;-64
2022/08/14 02:52:48;;;;;;;;;7.80;7.80;;;;;28.02;26.32;100069.63;2095910;28;47302;-63
2022/08/14 02:53:49;;;;;;;;;5.50;5.50;;;;;28.01;26.81;100064.31;2104672;28;47673;-64
2022/08/14 02:54:51;;;;;;;;;6.00;6.00;;;;;28.01;26.98;100061.59;2104342;28;47579;-63
2022/08/14 02:55:52;;;;;;;;;6.00;5.80;;;;;28.00;26.86;100054.44;2105143;27;48131;-64
2022/08/14 02:56:56;;;;;;;;;6.00;6.00;;;;;27.98;26.49;100053.75;2104722;27;47609;-63
2022/08/14 02:57:57;;;;;;;;;6.40;6.40;;;;;27.96;26.94;100047.59;2105420;27;47320;-63
2022/08/14 02:59:00;;;;;;;;;6.75;6.75;;;;;27.95;26.28;100046.75;2104854;27;47531;-63
2022/08/14 03:00:02;;;;;;;;;6.20;5.00;;;;;27.94;26.68;100049.59;2105050;27;47551;-63
2022/08/14 03:01:04;;;;;;;;;5.00;5.00;;;;;27.95;26.93;100051.31;2112622;27;47422;-62
2022/08/14 03:02:04;;;;;;;;;5.00;5.00;;;;;27.94;26.71;100045.00;2112783;27;48054;-63
2022/08/14 03:03:04;;;;;;;;;5.25;5.25;;;;;27.94;26.95;100044.16;2104742;27;48207;-63
2022/08/14 03:04:06;;;;;;;;;4.00;4.00;;;;;27.94;27.26;100052.34;2103622;28;45802;-64
2022/08/14 03:05:07;;;;;;;;;7.00;7.00;;;;;27.94;26.71;100055.06;2095554;28;47159;-64
2022/08/14 03:06:09;;;;;;;;;5.40;5.40;;;;;27.93;26.83;100048.75;2104548;28;47303;-63
2022/08/14 03:07:09;;;;;;;;;6.40;6.40;;;;;27.93;26.79;100056.94;2104974;27;47957;-62
2022/08/14 03:08:12;;;;;;;;;5.75;5.75;;;;;27.92;26.68;100057.09;2112821;27;47011;-64
2022/08/14 03:09:12;;;;;;;;;5.20;5.20;;;;;27.93;26.93;100058.81;2112557;27;46925;-63
2022/08/14 03:10:13;;;;;;;;;7.00;7.00;;;;;27.91;27.32;100063.56;2104750;27;47491;-63
2022/08/14 03:11:13;;;;;;;;;5.75;5.75;;;;;27.91;26.95;100069.03;2104951;27;47627;-63
2022/08/14 03:12:13;;;;;;;;;6.50;6.50;;;;;27.90;27.00;100053.69;2104887;27;47640;-64
2022/08/14 03:13:14;;;;;;;;;4.00;4.00;;;;;27.89;26.65;100054.69;2105111;27;47675;-63
2022/08/14 03:14:15;;;;;;;;;6.75;5.50;;;;;27.87;26.84;100052.16;2104760;27;47216;-64
2022/08/14 03:15:15;;;;;;;;;6.00;6.00;;;;;27.85;27.34;100048.72;2104927;27;47681;-63
2022/08/14 03:16:18;;;;;;;;;5.75;5.75;;;;;27.84;27.35;100061.50;2105176;27;46414;-64
2022/08/14 03:17:19;;;;;;;;;5.20;5.20;;;;;27.84;27.03;100060.66;2104619;27;47698;-62
2022/08/14 03:18:22;;;;;;;;;8.00;8.00;;;;;27.83;26.60;100062.53;2104895;27;47343;-64
2022/08/14 03:19:22;;;;;;;;;6.80;6.80;;;;;27.82;27.56;100060.81;2103566;28;47464;-64
2022/08/14 03:20:23;;;;;;;;;6.00;6.00;;;;;27.80;27.30;100062.81;2103322;28;45693;-64
2022/08/14 03:21:24;;;;;;;;;4.00;4.00;;;;;27.80;27.19;100062.81;2103661;28;47323;-63
2022/08/14 03:22:24;;;;;;;;;4.00;4.00;;;;;27.79;27.19;100055.66;2104666;28;47426;-63
2022/08/14 03:23:24;;;;;;;;;4.50;4.50;;;;;27.82;27.61;100063.53;2105050;27;48139;-63
2022/08/14 03:24:25;;;;;;;;;7.25;7.25;;;;;27.83;27.22;100062.53;2104639;27;47923;-63
2022/08/14 03:25:25;;;;;;;;;5.50;5.50;;;;;27.82;27.32;100057.19;2104957;27;47470;-63
2022/08/14 03:26:28;;;;;;;;;6.00;5.75;;;;;27.79;26.93;100055.66;2112133;27;47746;-63
2022/08/14 03:27:30;;;;;;;;;5.40;5.40;;;;;27.79;27.11;100052.94;2111914;27;48055;-64
2022/08/14 03:28:30;;;;;;;;;5.00;5.00;;;;;27.80;27.13;100054.63;2104823;27;47605;-64
2022/08/14 03:29:31;;;;;;;;;5.25;5.00;;;;;27.79;27.40;100060.25;2104450;27;47375;-63
2022/08/14 03:30:32;;;;;;;;;8.00;6.80;;;;;27.79;27.33;100057.53;2119846;27;47082;-65
2022/08/14 03:31:33;;;;;;;;;5.00;5.00;;;;;27.79;27.19;100054.81;2120265;27;47656;-64
2022/08/14 03:32:33;;;;;;;;;5.25;5.25;;;;;27.78;27.09;100061.28;2104841;27;47414;-63
2022/08/14 03:33:36;;;;;;;;;6.00;6.00;;;;;27.77;26.87;100056.84;2103292;28;47695;-63
2022/08/14 03:34:36;;;;;;;;;7.00;7.00;;;;;27.78;27.13;100059.41;2103233;28;47784;-64
2022/08/14 03:35:39;;;;;;;;;7.00;7.00;;;;;27.78;27.47;100047.63;2100019;28;47391;-62
2022/08/14 03:36:41;;;;;;;;;6.00;6.00;;;;;27.76;26.86;100055.13;2104838;27;47362;-64
2022/08/14 03:37:42;;;;;;;;;9.80;6.00;;;;;27.76;27.06;100052.41;2104679;27;47200;-62
2022/08/14 03:38:44;;;;;;;;;5.75;4.75;;;;;27.77;27.30;100051.38;2105139;27;47135;-63
2022/08/14 03:39:45;;;;;;;;;7.20;6.00;;;;;27.76;27.01;100052.41;2111811;27;48078;-63
2022/08/14 03:40:46;;;;;;;;;5.50;5.50;;;;;27.74;27.09;100052.56;2112203;27;48199;-63
2022/08/14 03:41:47;;;;;;;;;5.00;5.00;;;;;27.72;27.48;100048.28;2104742;27;47561;-64
2022/08/14 03:42:48;;;;;;;;;8.20;6.20;;;;;27.68;27.03;100052.34;2104582;27;47526;-65
2022/08/14 03:43:54;;;;;;;;;8.20;7.20;;;;;27.67;27.36;100056.06;2104571;27;47860;-63
2022/08/14 03:44:56;;;;;;;;;8.20;8.20;;;;;27.66;27.19;100055.22;2104649;27;47384;-63
2022/08/14 03:45:56;;;;;;;;;6.80;6.80;;;;;27.64;27.49;100056.38;2104409;27;47622;-64
2022/08/14 03:46:57;;;;;;;;;7.00;7.00;;;;;27.62;27.43;100059.25;2105005;27;47454;-62
2022/08/14 03:47:59;;;;;;;;;6.75;6.75;;;;;27.62;27.50;100055.69;2104699;27;47766;-63
2022/08/14 03:49:03;;;;;;;;;8.60;7.20;;;;;27.62;27.88;100055.69;2104516;27;47509;-64
2022/08/14 03:50:04;;;;;;;;;7.20;6.20;;;;;27.62;27.79;100061.13;2104589;27;47899;-64
2022/08/14 03:51:07;;;;;;;;;7.60;6.80;;;;;27.61;27.06;100060.28;2103024;28;48120;-63
2022/08/14 03:52:09;;;;;;;;;7.40;7.40;;;;;27.59;27.53;100065.03;2094777;28;47312;-63
2022/08/14 03:53:12;;;;;;;;;5.00;5.00;;;;;27.58;27.95;100066.06;2103959;28;47749;-64
2022/08/14 03:54:14;;;;;;;;;6.40;6.40;;;;;27.56;27.80;100060.72;2096317;28;47848;-64
2022/08/14 03:55:14;;;;;;;;;7.20;7.20;;;;;27.58;27.93;100071.50;2101957;28;47627;-62
2022/08/14 03:56:16;;;;;;;;;5.00;5.00;;;;;27.58;27.75;100063.31;2094630;28;47637;-62
2022/08/14 03:57:16;;;;;;;;;6.60;6.60;;;;;27.58;27.84;100065.19;2094808;28;48143;-64
2022/08/14 03:58:16;;;;;;;;;4.00;4.00;;;;;27.59;27.76;100070.50;2101066;28;47812;-63
2022/08/14 03:59:17;;;;;;;;;5.00;5.00;;;;;27.59;28.00;100065.03;2104280;27;47781;-63
2022/08/14 04:00:17;;;;;;;;;7.00;6.00;;;;;27.57;27.66;100067.06;2104448;27;46982;-62
2022/08/14 04:01:23;;;;;;;;;6.50;6.50;;;;;27.56;27.75;100063.47;2104100;27;47402;-63
2022/08/14 04:02:23;;;;;;;;;5.80;5.20;;;;;27.58;28.06;100067.91;2104590;27;47338;-64
2022/08/14 04:03:25;;;;;;;;;7.00;7.00;;;;;27.58;27.36;100071.50;2104542;27;47175;-64
2022/08/14 04:04:25;;;;;;;;;6.60;6.60;;;;;27.58;27.25;100068.78;2104329;27;47913;-62
2022/08/14 04:05:26;;;;;;;;;5.50;5.50;;;;;27.58;28.03;100073.38;2104622;27;47713;-63
2022/08/14 04:06:26;;;;;;;;;7.50;7.50;;;;;27.58;27.52;100074.22;2104454;27;47468;-62
2022/08/14 04:07:26;;;;;;;;;8.00;7.00;;;;;27.57;27.53;100075.25;2103914;28;47293;-63
2022/08/14 04:08:28;;;;;;;;;4.75;4.75;;;;;27.58;27.59;100073.38;2103916;28;48278;-63
2022/08/14 04:09:28;;;;;;;;;6.20;6.20;;;;;27.54;28.30;100090.03;2104448;27;47827;-63
2022/08/14 04:10:28;;;;;;;;;7.50;6.75;;;;;27.52;27.78;100085.75;2104547;27;46389;-63
2022/08/14 04:11:29;;;;;;;;;5.75;5.75;;;;;27.49;27.53;100089.66;2104379;27;47725;-64
2022/08/14 04:12:29;;;;;;;;;6.75;6.75;;;;;27.47;28.00;100082.66;2104437;27;47644;-63
2022/08/14 04:13:32;;;;;;;;;7.75;6.00;;;;;27.43;27.88;100092.13;2104600;27;47658;-63
2022/08/14 04:14:32;;;;;;;;;4.60;4.60;;;;;27.40;28.08;100095.19;2106282;27;47600;-63
2022/08/14 04:15:33;;;;;;;;;7.75;7.75;;;;;27.37;28.29;100084.59;2104653;27;47887;-64
2022/08/14 04:16:34;;;;;;;;;6.40;6.40;;;;;27.34;27.79;100093.94;2104316;27;47524;-63
2022/08/14 04:17:34;;;;;;;;;6.25;6.25;;;;;27.33;27.89;100085.94;2104571;27;46306;-63
2022/08/14 04:18:40;;;;;;;;;6.00;6.00;;;;;27.33;28.14;100089.50;2102882;28;47255;-63
2022/08/14 04:19:40;;;;;;;;;7.40;7.40;;;;;27.34;28.26;100093.94;2102634;28;47514;-63
2022/08/14 04:20:41;;;;;;;;;6.00;6.00;;;;;27.36;27.79;100083.75;2098988;28;47641;-63
2022/08/14 04:21:41;;;;;;;;;7.00;7.00;;;;;27.37;28.11;100077.28;2104311;27;47722;-62
2022/08/14 04:22:42;;;;;;;;;6.00;6.00;;;;;27.39;27.97;100082.56;2104038;27;47334;-63
2022/08/14 04:23:44;;;;;;;;;6.00;6.00;;;;;27.39;28.57;100075.25;2104246;27;47437;-64
2022/08/14 04:24:45;;;;;;;;;6.20;5.60;;;;;27.39;28.32;100071.66;2111233;27;47492;-63
2022/08/14 04:25:46;;;;;;;;;6.00;6.00;;;;;27.40;27.97;100073.38;2111542;27;47620;-63
2022/08/14 04:26:46;;;;;;;;;5.50;5.50;;;;;27.42;28.40;100069.47;2104445;27;46292;-63
2022/08/14 04:27:46;;;;;;;;;5.00;5.00;;;;;27.42;27.89;100068.63;2104226;27;47730;-64
2022/08/14 04:28:49;;;;;;;;;5.75;5.75;;;;;27.44;28.35;100083.81;2104305;27;47689;-64
2022/08/14 04:29:49;;;;;;;;;5.40;5.40;;;;;27.43;27.78;100089.41;2104502;27;47263;-62
2022/08/14 04:30:50;;;;;;;;;5.25;5.25;;;;;27.40;28.59;100092.44;2104162;27;47829;-63
2022/08/14 04:31:50;;;;;;;;;7.00;7.00;;;;;27.40;28.22;100087.00;2104933;27;47317;-64
2022/08/14 04:32:50;;;;;;;;;6.00;5.50;;;;;27.38;28.45;100078.97;2104272;27;47380;-64
2022/08/14 04:33:52;;;;;;;;;6.00;6.00;;;;;27.40;28.29;100076.97;2111671;27;47345;-64
2022/08/14 04:34:53;;;;;;;;;5.80;4.40;;;;;27.40;28.08;100071.50;2111892;27;47597;-63
2022/08/14 04:35:54;;;;;;;;;5.20;5.00;;;;;27.42;27.64;100084.97;2104375;27;47443;-63
2022/08/14 04:43:37;;;;;;;;;4.60;4.60;;;;;27.41;28.09;100061.47;2104500;28;47428;-63
2022/08/14 04:44:37;;;;;;;;;5.00;5.00;;;;;27.38;28.20;100062.63;2103631;28;47857;-63
2022/08/14 04:45:41;;;;;;;;;4.50;4.50;;;;;27.39;27.77;100058.03;2103913;28;48296;-63
2022/08/14 04:48:11;;;;;;;;;4.80;4.80;;;;;27.39;27.77;100055.31;2103833;28;47142;-63
2022/08/14 04:48:12;;;;;;;;;5.40;5.40;;;;;27.40;27.41;100057.03;2104413;28;47172;-63
2022/08/14 04:49:12;;;;;;;;;5.80;5.80;;;;;27.41;27.38;100045.13;2103064;28;47607;-63
2022/08/14 04:50:13;;;;;;;;;6.00;6.00;;;;;27.41;27.88;100051.41;2103841;28;47418;-64
2022/08/14 04:51:15;;;;;;;;;4.50;4.00;;;;;27.44;27.55;100051.13;2103445;28;47886;-64
2022/08/14 04:52:16;;;;;;;;;7.20;6.00;;;;;27.45;27.88;100051.97;2104172;27;47960;-63
2022/08/14 04:53:23;;;;;;;;;5.75;5.75;;;;;27.48;27.51;100044.34;2103775;27;46660;-64
2022/08/14 04:54:25;;;;;;;;;6.00;5.00;;;;;27.50;27.76;100041.44;2104300;27;47757;-64
2022/08/14 04:55:26;;;;;;;;;4.00;4.00;;;;;27.52;27.34;100042.13;2104627;27;48093;-63
2022/08/14 04:56:26;;;;;;;;;4.75;4.75;;;;;27.52;27.60;100039.41;2104174;27;47434;-63
2022/08/14 04:57:27;;;;;;;;;6.00;5.00;;;;;27.52;27.69;100034.81;2104743;27;47458;-63
2022/08/14 04:58:30;;;;;;;;;5.75;4.75;;;;;27.53;27.63;100041.13;2104309;27;47724;-63
2022/08/14 04:59:30;;;;;;;;;6.20;6.20;;;;;27.52;27.54;100034.81;2104019;27;47766;-63
2022/08/14 05:00:31;;;;;;;;;6.00;4.50;;;;;27.49;27.73;100032.41;2104320;27;47581;-62